Portada
METAR-TAF:

METAR-TAF

Aeroports :

Bagdad, Iraq

latitud: 33-15-45N, longitud: 44-14-04E, altitud: 35 m

Observació

L'informe es va fer fa 45 minuts, a les 20:00 UTC
Vent 6 kt del Nord/Nord-Oest
Temperatura 31°C
Humitat 22%
Pressió 1003 hPa
Visibilitat 10 km o més
sense núvols per sota de 1500 mi sense presència de cumulonimbus.

METAR: ORBI 012000Z 33006KT CAVOK 31/07 Q1003 NOSIG

Hora: 23:45 (20:45 UTC)

Pronòstic

L'informe es va fer fa 3 hores i 45 minuts, a les 17:00 UTC
Pronòstic vàlid del 01 a les 18 UTC al 02 a les 18 UTC
Vent 8 kt del Nord/Nord-Oest
Visibilitat: 8000 m
Escasses núvols a una alçada de 4000 ft

TAF: ORBI 011700Z 0118/0218 33008KT 8000 FEW040

Observacions i pronòstics meteorològics de més de 4000 aeroports (METAR i TAF).

Les estacions disponibles són els punts grocs i vermells al mapa.

Posi el ratolí al punt desitjat per veure el nom de l'estació.

Feu clic per veure les observacions i els pronòstics meteorològics.

Per canviar el mapa: feu clic els botons verds amb una creu de color negre per apropar; al botó verd amb un guió per allunyar la imatge; o en les fletxes verdes per a mapes adjacents.


METAR-TAF: